sensor_id;sensor_type;location;lat;lon;timestamp;P1;durP1;ratioP1;P2;durP2;ratioP2
62832;SDS011;48891;49.220;6.920;2023-05-02T00:01:28;34.00;;;27.17;;
62832;SDS011;48891;49.220;6.920;2023-05-02T00:03:53;32.05;;;24.35;;
62832;SDS011;48891;49.220;6.920;2023-05-02T00:06:19;31.75;;;26.73;;
62832;SDS011;48891;49.220;6.920;2023-05-02T00:08:44;30.55;;;25.73;;
62832;SDS011;48891;49.220;6.920;2023-05-02T00:11:09;30.05;;;24.45;;
62832;SDS011;48891;49.220;6.920;2023-05-02T00:13:34;30.55;;;24.70;;
62832;SDS011;48891;49.220;6.920;2023-05-02T00:16:00;33.05;;;25.65;;
62832;SDS011;48891;49.220;6.920;2023-05-02T00:18:25;32.33;;;25.88;;
62832;SDS011;48891;49.220;6.920;2023-05-02T00:20:50;31.42;;;26.08;;
62832;SDS011;48891;49.220;6.920;2023-05-02T00:23:15;32.03;;;27.00;;
62832;SDS011;48891;49.220;6.920;2023-05-02T00:25:44;29.17;;;24.80;;
62832;SDS011;48891;49.220;6.920;2023-05-02T00:28:09;32.00;;;26.25;;
62832;SDS011;48891;49.220;6.920;2023-05-02T00:30:35;32.53;;;25.55;;
62832;SDS011;48891;49.220;6.920;2023-05-02T00:33:00;32.17;;;26.55;;
62832;SDS011;48891;49.220;6.920;2023-05-02T00:35:25;31.70;;;24.90;;
62832;SDS011;48891;49.220;6.920;2023-05-02T00:37:50;30.52;;;25.67;;
62832;SDS011;48891;49.220;6.920;2023-05-02T00:40:15;32.85;;;24.73;;
62832;SDS011;48891;49.220;6.920;2023-05-02T00:42:41;29.77;;;24.05;;
62832;SDS011;48891;49.220;6.920;2023-05-02T00:45:06;29.60;;;24.40;;
62832;SDS011;48891;49.220;6.920;2023-05-02T00:47:32;30.30;;;24.08;;
62832;SDS011;48891;49.220;6.920;2023-05-02T00:49:57;30.02;;;24.20;;
62832;SDS011;48891;49.220;6.920;2023-05-02T00:52:23;28.38;;;23.65;;
62832;SDS011;48891;49.220;6.920;2023-05-02T00:54:49;30.52;;;23.80;;
62832;SDS011;48891;49.220;6.920;2023-05-02T00:57:14;29.90;;;24.27;;
62832;SDS011;48891;49.220;6.920;2023-05-02T00:59:39;30.02;;;24.73;;
62832;SDS011;48891;49.220;6.920;2023-05-02T01:07:39;27.40;;;22.85;;
62832;SDS011;48891;49.220;6.920;2023-05-02T01:15:19;28.48;;;23.10;;
62832;SDS011;48891;49.220;6.920;2023-05-02T01:17:47;29.73;;;23.35;;
62832;SDS011;48891;49.220;6.920;2023-05-02T01:20:15;28.13;;;23.30;;
62832;SDS011;48891;49.220;6.920;2023-05-02T01:22:44;28.20;;;22.60;;
62832;SDS011;48891;49.220;6.920;2023-05-02T01:28:09;27.88;;;22.42;;
62832;SDS011;48891;49.220;6.920;2023-05-02T01:30:45;27.08;;;22.15;;
62832;SDS011;48891;49.220;6.920;2023-05-02T01:33:13;26.90;;;21.98;;
62832;SDS011;48891;49.220;6.920;2023-05-02T01:35:40;25.70;;;20.95;;
62832;SDS011;48891;49.220;6.920;2023-05-02T01:38:07;25.63;;;22.33;;
62832;SDS011;48891;49.220;6.920;2023-05-02T01:40:38;25.58;;;22.17;;
62832;SDS011;48891;49.220;6.920;2023-05-02T01:43:05;24.45;;;21.35;;
62832;SDS011;48891;49.220;6.920;2023-05-02T01:45:32;26.25;;;21.77;;
62832;SDS011;48891;49.220;6.920;2023-05-02T01:48:01;28.45;;;21.55;;
62832;SDS011;48891;49.220;6.920;2023-05-02T01:50:27;25.52;;;21.23;;
62832;SDS011;48891;49.220;6.920;2023-05-02T01:52:53;25.60;;;21.67;;
62832;SDS011;48891;49.220;6.920;2023-05-02T01:55:19;25.70;;;21.90;;
62832;SDS011;48891;49.220;6.920;2023-05-02T01:57:45;26.40;;;21.35;;
62832;SDS011;48891;49.220;6.920;2023-05-02T02:00:12;25.58;;;21.73;;
62832;SDS011;48891;49.220;6.920;2023-05-02T02:02:41;24.13;;;20.45;;
62832;SDS011;48891;49.220;6.920;2023-05-02T02:05:09;26.37;;;20.83;;
62832;SDS011;48891;49.220;6.920;2023-05-02T02:07:34;26.90;;;21.15;;
62832;SDS011;48891;49.220;6.920;2023-05-02T02:10:00;24.70;;;20.55;;
62832;SDS011;48891;49.220;6.920;2023-05-02T02:12:26;24.15;;;19.80;;
62832;SDS011;48891;49.220;6.920;2023-05-02T02:14:55;25.30;;;20.77;;
62832;SDS011;48891;49.220;6.920;2023-05-02T02:17:42;23.58;;;20.23;;
62832;SDS011;48891;49.220;6.920;2023-05-02T02:20:10;24.60;;;21.08;;
62832;SDS011;48891;49.220;6.920;2023-05-02T02:22:37;24.02;;;20.10;;
62832;SDS011;48891;49.220;6.920;2023-05-02T02:25:05;23.23;;;17.63;;
62832;SDS011;48891;49.220;6.920;2023-05-02T02:27:34;24.25;;;19.73;;
62832;SDS011;48891;49.220;6.920;2023-05-02T02:30:01;23.83;;;19.30;;
62832;SDS011;48891;49.220;6.920;2023-05-02T02:32:26;22.95;;;19.15;;
62832;SDS011;48891;49.220;6.920;2023-05-02T02:34:51;23.02;;;19.50;;
62832;SDS011;48891;49.220;6.920;2023-05-02T02:37:18;22.50;;;17.90;;
62832;SDS011;48891;49.220;6.920;2023-05-02T02:42:31;23.08;;;18.15;;
62832;SDS011;48891;49.220;6.920;2023-05-02T02:45:23;22.58;;;18.70;;
62832;SDS011;48891;49.220;6.920;2023-05-02T02:48:21;23.40;;;18.23;;
62832;SDS011;48891;49.220;6.920;2023-05-02T02:53:24;21.35;;;17.73;;
62832;SDS011;48891;49.220;6.920;2023-05-02T02:56:02;23.55;;;18.58;;
62832;SDS011;48891;49.220;6.920;2023-05-02T02:58:30;23.02;;;18.75;;
62832;SDS011;48891;49.220;6.920;2023-05-02T03:01:00;21.83;;;18.13;;
62832;SDS011;48891;49.220;6.920;2023-05-02T03:03:28;21.02;;;17.10;;
62832;SDS011;48891;49.220;6.920;2023-05-02T03:05:56;21.53;;;17.70;;
62832;SDS011;48891;49.220;6.920;2023-05-02T03:08:21;21.08;;;17.25;;
62832;SDS011;48891;49.220;6.920;2023-05-02T03:10:47;24.85;;;17.65;;
62832;SDS011;48891;49.220;6.920;2023-05-02T03:13:12;20.02;;;16.67;;
62832;SDS011;48891;49.220;6.920;2023-05-02T03:18:15;20.70;;;17.35;;
62832;SDS011;48891;49.220;6.920;2023-05-02T03:20:40;20.80;;;17.27;;
62832;SDS011;48891;49.220;6.920;2023-05-02T03:23:06;20.52;;;17.05;;
62832;SDS011;48891;49.220;6.920;2023-05-02T03:25:31;21.33;;;16.40;;
62832;SDS011;48891;49.220;6.920;2023-05-02T03:27:56;21.33;;;16.83;;
62832;SDS011;48891;49.220;6.920;2023-05-02T03:30:21;20.33;;;16.73;;
62832;SDS011;48891;49.220;6.920;2023-05-02T03:32:47;18.42;;;15.38;;
62832;SDS011;48891;49.220;6.920;2023-05-02T03:35:12;19.85;;;16.30;;
62832;SDS011;48891;49.220;6.920;2023-05-02T03:37:37;19.23;;;15.50;;
62832;SDS011;48891;49.220;6.920;2023-05-02T03:40:03;21.85;;;16.15;;
62832;SDS011;48891;49.220;6.920;2023-05-02T03:42:28;18.40;;;15.50;;
62832;SDS011;48891;49.220;6.920;2023-05-02T03:44:54;18.85;;;15.75;;
62832;SDS011;48891;49.220;6.920;2023-05-02T03:47:19;18.85;;;15.43;;
62832;SDS011;48891;49.220;6.920;2023-05-02T03:49:44;18.67;;;15.38;;
62832;SDS011;48891;49.220;6.920;2023-05-02T03:52:10;19.52;;;15.52;;
62832;SDS011;48891;49.220;6.920;2023-05-02T03:54:35;17.25;;;15.40;;
62832;SDS011;48891;49.220;6.920;2023-05-02T03:57:00;19.23;;;15.70;;
62832;SDS011;48891;49.220;6.920;2023-05-02T03:59:25;18.70;;;15.10;;
62832;SDS011;48891;49.220;6.920;2023-05-02T04:01:50;18.48;;;14.43;;
62832;SDS011;48891;49.220;6.920;2023-05-02T04:04:16;19.25;;;15.38;;
62832;SDS011;48891;49.220;6.920;2023-05-02T04:06:41;16.95;;;14.23;;
62832;SDS011;48891;49.220;6.920;2023-05-02T04:09:06;19.47;;;15.20;;
62832;SDS011;48891;49.220;6.920;2023-05-02T04:11:31;22.23;;;15.32;;
62832;SDS011;48891;49.220;6.920;2023-05-02T04:13:57;18.73;;;15.30;;
62832;SDS011;48891;49.220;6.920;2023-05-02T04:16:22;17.35;;;14.07;;
62832;SDS011;48891;49.220;6.920;2023-05-02T04:18:47;17.67;;;14.38;;
62832;SDS011;48891;49.220;6.920;2023-05-02T04:21:13;17.80;;;14.57;;
62832;SDS011;48891;49.220;6.920;2023-05-02T04:23:38;17.52;;;14.18;;
62832;SDS011;48891;49.220;6.920;2023-05-02T04:26:03;17.17;;;14.52;;
62832;SDS011;48891;49.220;6.920;2023-05-02T04:28:28;17.75;;;13.95;;
62832;SDS011;48891;49.220;6.920;2023-05-02T04:30:54;16.88;;;14.43;;
62832;SDS011;48891;49.220;6.920;2023-05-02T04:33:20;17.38;;;13.57;;
62832;SDS011;48891;49.220;6.920;2023-05-02T04:35:45;17.15;;;14.00;;
62832;SDS011;48891;49.220;6.920;2023-05-02T04:38:10;17.35;;;14.05;;
62832;SDS011;48891;49.220;6.920;2023-05-02T04:40:36;16.55;;;14.07;;
62832;SDS011;48891;49.220;6.920;2023-05-02T04:43:01;17.27;;;14.25;;
62832;SDS011;48891;49.220;6.920;2023-05-02T04:45:26;16.92;;;13.90;;
62832;SDS011;48891;49.220;6.920;2023-05-02T04:47:51;15.07;;;13.48;;
62832;SDS011;48891;49.220;6.920;2023-05-02T04:50:16;15.82;;;12.77;;
62832;SDS011;48891;49.220;6.920;2023-05-02T04:52:42;16.65;;;14.05;;
62832;SDS011;48891;49.220;6.920;2023-05-02T04:55:07;15.98;;;13.70;;
62832;SDS011;48891;49.220;6.920;2023-05-02T04:57:33;14.77;;;12.27;;
62832;SDS011;48891;49.220;6.920;2023-05-02T04:59:58;15.98;;;12.93;;
62832;SDS011;48891;49.220;6.920;2023-05-02T05:02:23;16.77;;;13.35;;
62832;SDS011;48891;49.220;6.920;2023-05-02T05:04:48;16.48;;;12.88;;
62832;SDS011;48891;49.220;6.920;2023-05-02T05:07:14;15.98;;;12.80;;
62832;SDS011;48891;49.220;6.920;2023-05-02T05:09:39;14.67;;;12.33;;
62832;SDS011;48891;49.220;6.920;2023-05-02T05:12:04;15.35;;;13.27;;
62832;SDS011;48891;49.220;6.920;2023-05-02T05:14:29;15.05;;;12.52;;
62832;SDS011;48891;49.220;6.920;2023-05-02T05:16:54;16.15;;;12.88;;
62832;SDS011;48891;49.220;6.920;2023-05-02T05:19:20;16.17;;;12.32;;
62832;SDS011;48891;49.220;6.920;2023-05-02T05:21:45;15.73;;;12.82;;
62832;SDS011;48891;49.220;6.920;2023-05-02T05:24:10;14.93;;;12.25;;
62832;SDS011;48891;49.220;6.920;2023-05-02T05:26:36;15.63;;;12.67;;
62832;SDS011;48891;49.220;6.920;2023-05-02T05:29:01;15.00;;;12.48;;
62832;SDS011;48891;49.220;6.920;2023-05-02T05:31:26;14.63;;;11.77;;
62832;SDS011;48891;49.220;6.920;2023-05-02T05:33:51;15.88;;;12.30;;
62832;SDS011;48891;49.220;6.920;2023-05-02T05:36:17;14.98;;;12.88;;
62832;SDS011;48891;49.220;6.920;2023-05-02T05:38:42;14.35;;;12.55;;
62832;SDS011;48891;49.220;6.920;2023-05-02T05:41:07;13.65;;;11.48;;
62832;SDS011;48891;49.220;6.920;2023-05-02T05:43:33;15.43;;;12.52;;
62832;SDS011;48891;49.220;6.920;2023-05-02T05:45:58;15.48;;;12.18;;
62832;SDS011;48891;49.220;6.920;2023-05-02T05:48:23;15.23;;;12.23;;
62832;SDS011;48891;49.220;6.920;2023-05-02T05:50:49;15.07;;;12.15;;
62832;SDS011;48891;49.220;6.920;2023-05-02T05:53:14;15.80;;;13.00;;
62832;SDS011;48891;49.220;6.920;2023-05-02T05:55:40;14.80;;;12.27;;
62832;SDS011;48891;49.220;6.920;2023-05-02T05:58:05;15.57;;;11.98;;
62832;SDS011;48891;49.220;6.920;2023-05-02T06:00:33;14.90;;;11.57;;
62832;SDS011;48891;49.220;6.920;2023-05-02T06:02:59;15.23;;;11.73;;
62832;SDS011;48891;49.220;6.920;2023-05-02T06:05:24;14.73;;;11.48;;
62832;SDS011;48891;49.220;6.920;2023-05-02T06:07:50;15.43;;;12.85;;
62832;SDS011;48891;49.220;6.920;2023-05-02T06:10:15;13.82;;;11.80;;
62832;SDS011;48891;49.220;6.920;2023-05-02T06:12:40;13.55;;;12.00;;
62832;SDS011;48891;49.220;6.920;2023-05-02T06:15:06;15.80;;;13.00;;
62832;SDS011;48891;49.220;6.920;2023-05-02T06:17:31;14.98;;;11.77;;
62832;SDS011;48891;49.220;6.920;2023-05-02T06:19:56;13.98;;;12.05;;
62832;SDS011;48891;49.220;6.920;2023-05-02T06:22:22;16.35;;;12.57;;
62832;SDS011;48891;49.220;6.920;2023-05-02T06:24:47;15.93;;;12.93;;
62832;SDS011;48891;49.220;6.920;2023-05-02T06:27:12;16.30;;;12.48;;
62832;SDS011;48891;49.220;6.920;2023-05-02T06:29:37;15.70;;;12.80;;
62832;SDS011;48891;49.220;6.920;2023-05-02T06:32:03;14.93;;;12.70;;
62832;SDS011;48891;49.220;6.920;2023-05-02T06:34:30;16.75;;;13.32;;
62832;SDS011;48891;49.220;6.920;2023-05-02T06:36:56;15.82;;;13.40;;
62832;SDS011;48891;49.220;6.920;2023-05-02T06:39:21;17.90;;;13.85;;
62832;SDS011;48891;49.220;6.920;2023-05-02T06:41:46;15.70;;;12.65;;
62832;SDS011;48891;49.220;6.920;2023-05-02T06:44:12;16.63;;;13.23;;
62832;SDS011;48891;49.220;6.920;2023-05-02T06:46:37;16.15;;;13.13;;
62832;SDS011;48891;49.220;6.920;2023-05-02T06:49:02;17.48;;;13.73;;
62832;SDS011;48891;49.220;6.920;2023-05-02T06:51:27;19.25;;;14.77;;
62832;SDS011;48891;49.220;6.920;2023-05-02T06:53:53;18.33;;;14.27;;
62832;SDS011;48891;49.220;6.920;2023-05-02T06:56:18;18.05;;;14.50;;
62832;SDS011;48891;49.220;6.920;2023-05-02T06:58:43;18.40;;;14.68;;
62832;SDS011;48891;49.220;6.920;2023-05-02T07:01:08;15.18;;;13.55;;
62832;SDS011;48891;49.220;6.920;2023-05-02T07:03:34;18.95;;;14.57;;
62832;SDS011;48891;49.220;6.920;2023-05-02T07:05:59;19.87;;;15.27;;
62832;SDS011;48891;49.220;6.920;2023-05-02T07:08:24;19.40;;;15.10;;
62832;SDS011;48891;49.220;6.920;2023-05-02T07:10:49;20.40;;;15.88;;
62832;SDS011;48891;49.220;6.920;2023-05-02T07:13:15;20.48;;;16.40;;
62832;SDS011;48891;49.220;6.920;2023-05-02T07:15:41;19.02;;;15.88;;
62832;SDS011;48891;49.220;6.920;2023-05-02T07:18:06;21.35;;;16.05;;
62832;SDS011;48891;49.220;6.920;2023-05-02T07:20:32;23.08;;;18.42;;
62832;SDS011;48891;49.220;6.920;2023-05-02T07:22:57;24.27;;;18.90;;
62832;SDS011;48891;49.220;6.920;2023-05-02T07:25:22;22.80;;;17.98;;
62832;SDS011;48891;49.220;6.920;2023-05-02T07:27:47;24.45;;;18.17;;
62832;SDS011;48891;49.220;6.920;2023-05-02T07:30:13;23.67;;;19.13;;
62832;SDS011;48891;49.220;6.920;2023-05-02T07:32:38;22.23;;;18.58;;
62832;SDS011;48891;49.220;6.920;2023-05-02T07:35:03;25.23;;;19.88;;
62832;SDS011;48891;49.220;6.920;2023-05-02T07:37:31;26.05;;;20.02;;
62832;SDS011;48891;49.220;6.920;2023-05-02T07:39:57;23.58;;;19.38;;
62832;SDS011;48891;49.220;6.920;2023-05-02T07:42:27;24.20;;;19.80;;
62832;SDS011;48891;49.220;6.920;2023-05-02T07:44:53;25.17;;;19.67;;
62832;SDS011;48891;49.220;6.920;2023-05-02T07:47:18;25.38;;;20.38;;
62832;SDS011;48891;49.220;6.920;2023-05-02T07:49:43;25.40;;;20.73;;
62832;SDS011;48891;49.220;6.920;2023-05-02T07:52:08;26.83;;;21.50;;
62832;SDS011;48891;49.220;6.920;2023-05-02T07:54:33;29.38;;;21.10;;
62832;SDS011;48891;49.220;6.920;2023-05-02T07:56:59;27.00;;;21.63;;
62832;SDS011;48891;49.220;6.920;2023-05-02T07:59:24;27.30;;;21.97;;
62832;SDS011;48891;49.220;6.920;2023-05-02T08:01:49;27.53;;;22.53;;
62832;SDS011;48891;49.220;6.920;2023-05-02T08:04:14;27.40;;;22.48;;
62832;SDS011;48891;49.220;6.920;2023-05-02T08:06:39;29.73;;;22.38;;
62832;SDS011;48891;49.220;6.920;2023-05-02T08:09:05;28.60;;;22.87;;
62832;SDS011;48891;49.220;6.920;2023-05-02T08:11:30;29.42;;;23.67;;
62832;SDS011;48891;49.220;6.920;2023-05-02T08:13:55;30.35;;;23.52;;
62832;SDS011;48891;49.220;6.920;2023-05-02T08:16:20;32.47;;;24.50;;
62832;SDS011;48891;49.220;6.920;2023-05-02T08:18:46;30.38;;;24.23;;
62832;SDS011;48891;49.220;6.920;2023-05-02T08:21:11;31.75;;;24.38;;
62832;SDS011;48891;49.220;6.920;2023-05-02T08:23:37;32.45;;;25.70;;
62832;SDS011;48891;49.220;6.920;2023-05-02T08:26:03;28.95;;;24.33;;
62832;SDS011;48891;49.220;6.920;2023-05-02T08:28:28;29.65;;;24.83;;
62832;SDS011;48891;49.220;6.920;2023-05-02T08:30:53;33.85;;;26.95;;
62832;SDS011;48891;49.220;6.920;2023-05-02T08:33:19;32.22;;;24.70;;
62832;SDS011;48891;49.220;6.920;2023-05-02T08:35:44;33.45;;;26.23;;
62832;SDS011;48891;49.220;6.920;2023-05-02T08:38:09;32.20;;;25.23;;
62832;SDS011;48891;49.220;6.920;2023-05-02T08:40:35;32.85;;;25.83;;
62832;SDS011;48891;49.220;6.920;2023-05-02T08:43:02;37.17;;;27.98;;
62832;SDS011;48891;49.220;6.920;2023-05-02T08:45:28;32.72;;;26.65;;
62832;SDS011;48891;49.220;6.920;2023-05-02T08:47:58;34.72;;;28.25;;
62832;SDS011;48891;49.220;6.920;2023-05-02T08:50:23;34.80;;;28.40;;
62832;SDS011;48891;49.220;6.920;2023-05-02T08:52:49;36.33;;;28.15;;
62832;SDS011;48891;49.220;6.920;2023-05-02T08:55:16;36.22;;;28.20;;
62832;SDS011;48891;49.220;6.920;2023-05-02T08:57:42;35.28;;;29.02;;
62832;SDS011;48891;49.220;6.920;2023-05-02T09:00:08;36.13;;;28.35;;
62832;SDS011;48891;49.220;6.920;2023-05-02T09:02:50;34.95;;;28.35;;
62832;SDS011;48891;49.220;6.920;2023-05-02T09:05:23;37.40;;;28.80;;
62832;SDS011;48891;49.220;6.920;2023-05-02T09:07:50;38.80;;;30.60;;
62832;SDS011;48891;49.220;6.920;2023-05-02T09:10:15;40.03;;;31.40;;
62832;SDS011;48891;49.220;6.920;2023-05-02T09:12:42;38.67;;;30.58;;
62832;SDS011;48891;49.220;6.920;2023-05-02T09:15:07;41.05;;;31.88;;
62832;SDS011;48891;49.220;6.920;2023-05-02T09:17:43;41.30;;;30.83;;
62832;SDS011;48891;49.220;6.920;2023-05-02T09:20:10;41.67;;;31.63;;
62832;SDS011;48891;49.220;6.920;2023-05-02T09:22:36;42.60;;;31.05;;
62832;SDS011;48891;49.220;6.920;2023-05-02T09:25:02;38.38;;;30.58;;
62832;SDS011;48891;49.220;6.920;2023-05-02T09:27:29;38.38;;;31.40;;
62832;SDS011;48891;49.220;6.920;2023-05-02T09:30:22;43.55;;;33.25;;
62832;SDS011;48891;49.220;6.920;2023-05-02T09:32:49;42.15;;;32.80;;
62832;SDS011;48891;49.220;6.920;2023-05-02T09:35:16;41.75;;;33.03;;
62832;SDS011;48891;49.220;6.920;2023-05-02T09:37:41;41.15;;;33.80;;
62832;SDS011;48891;49.220;6.920;2023-05-02T09:40:07;42.00;;;33.38;;
62832;SDS011;48891;49.220;6.920;2023-05-02T09:42:33;42.90;;;32.80;;
62832;SDS011;48891;49.220;6.920;2023-05-02T09:44:58;41.88;;;34.33;;
62832;SDS011;48891;49.220;6.920;2023-05-02T09:47:24;41.22;;;33.53;;
62832;SDS011;48891;49.220;6.920;2023-05-02T09:49:49;42.60;;;33.13;;
62832;SDS011;48891;49.220;6.920;2023-05-02T09:52:15;44.40;;;34.40;;
62832;SDS011;48891;49.220;6.920;2023-05-02T09:54:42;41.75;;;33.53;;
62832;SDS011;48891;49.220;6.920;2023-05-02T09:57:08;42.63;;;33.85;;
62832;SDS011;48891;49.220;6.920;2023-05-02T09:59:33;45.13;;;34.72;;
62832;SDS011;48891;49.220;6.920;2023-05-02T10:02:00;44.25;;;35.08;;
62832;SDS011;48891;49.220;6.920;2023-05-02T10:04:26;45.30;;;35.20;;
62832;SDS011;48891;49.220;6.920;2023-05-02T10:06:53;42.53;;;34.72;;
62832;SDS011;48891;49.220;6.920;2023-05-02T10:09:19;42.63;;;35.28;;
62832;SDS011;48891;49.220;6.920;2023-05-02T10:11:45;46.70;;;36.88;;
62832;SDS011;48891;49.220;6.920;2023-05-02T10:14:11;45.03;;;35.30;;
62832;SDS011;48891;49.220;6.920;2023-05-02T10:16:38;45.78;;;36.05;;
62832;SDS011;48891;49.220;6.920;2023-05-02T10:19:19;46.95;;;36.00;;
62832;SDS011;48891;49.220;6.920;2023-05-02T10:21:48;49.42;;;36.83;;
62832;SDS011;48891;49.220;6.920;2023-05-02T10:24:14;47.65;;;37.08;;
62832;SDS011;48891;49.220;6.920;2023-05-02T10:26:40;47.17;;;35.67;;
62832;SDS011;48891;49.220;6.920;2023-05-02T10:29:06;46.78;;;36.20;;
62832;SDS011;48891;49.220;6.920;2023-05-02T10:31:32;45.60;;;36.33;;
62832;SDS011;48891;49.220;6.920;2023-05-02T10:33:58;47.20;;;36.45;;
62832;SDS011;48891;49.220;6.920;2023-05-02T10:36:24;48.70;;;37.85;;
62832;SDS011;48891;49.220;6.920;2023-05-02T10:38:51;46.55;;;35.67;;
62832;SDS011;48891;49.220;6.920;2023-05-02T10:41:24;50.17;;;38.88;;
62832;SDS011;48891;49.220;6.920;2023-05-02T10:43:51;45.72;;;36.17;;
62832;SDS011;48891;49.220;6.920;2023-05-02T10:49:03;48.78;;;37.92;;
62832;SDS011;48891;49.220;6.920;2023-05-02T10:51:33;53.25;;;39.10;;
62832;SDS011;48891;49.220;6.920;2023-05-02T10:59:27;52.70;;;38.92;;
62832;SDS011;48891;49.220;6.920;2023-05-02T11:01:53;48.35;;;38.42;;
62832;SDS011;48891;49.220;6.920;2023-05-02T11:04:19;50.10;;;38.95;;
62832;SDS011;48891;49.220;6.920;2023-05-02T11:11:47;52.53;;;39.23;;
62832;SDS011;48891;49.220;6.920;2023-05-02T11:19:21;49.97;;;38.90;;
62832;SDS011;48891;49.220;6.920;2023-05-02T11:21:47;49.50;;;38.88;;
62832;SDS011;48891;49.220;6.920;2023-05-02T11:24:45;49.40;;;38.80;;
62832;SDS011;48891;49.220;6.920;2023-05-02T11:29:58;52.33;;;38.92;;
62832;SDS011;48891;49.220;6.920;2023-05-02T11:32:25;50.83;;;39.88;;
62832;SDS011;48891;49.220;6.920;2023-05-02T11:35:19;49.45;;;39.53;;
62832;SDS011;48891;49.220;6.920;2023-05-02T11:38:02;53.30;;;39.95;;
62832;SDS011;48891;49.220;6.920;2023-05-02T11:40:29;51.92;;;40.75;;
62832;SDS011;48891;49.220;6.920;2023-05-02T11:42:56;55.10;;;41.25;;
62832;SDS011;48891;49.220;6.920;2023-05-02T11:45:32;50.65;;;39.78;;
62832;SDS011;48891;49.220;6.920;2023-05-02T11:47:58;51.33;;;39.50;;
62832;SDS011;48891;49.220;6.920;2023-05-02T11:50:24;53.58;;;41.40;;
62832;SDS011;48891;49.220;6.920;2023-05-02T11:52:50;51.63;;;39.97;;
62832;SDS011;48891;49.220;6.920;2023-05-02T11:55:16;51.88;;;40.75;;
62832;SDS011;48891;49.220;6.920;2023-05-02T11:57:41;53.60;;;40.97;;
62832;SDS011;48891;49.220;6.920;2023-05-02T12:00:06;49.83;;;39.55;;
62832;SDS011;48891;49.220;6.920;2023-05-02T12:02:45;56.25;;;42.78;;
62832;SDS011;48891;49.220;6.920;2023-05-02T12:07:36;55.10;;;42.30;;
62832;SDS011;48891;49.220;6.920;2023-05-02T12:10:02;52.58;;;40.38;;
62832;SDS011;48891;49.220;6.920;2023-05-02T12:12:28;55.95;;;42.75;;
62832;SDS011;48891;49.220;6.920;2023-05-02T12:14:53;52.60;;;40.42;;
62832;SDS011;48891;49.220;6.920;2023-05-02T12:17:18;53.97;;;41.55;;
62832;SDS011;48891;49.220;6.920;2023-05-02T12:19:44;55.10;;;41.15;;
62832;SDS011;48891;49.220;6.920;2023-05-02T12:22:09;54.58;;;43.10;;
62832;SDS011;48891;49.220;6.920;2023-05-02T12:24:35;54.05;;;42.00;;
62832;SDS011;48891;49.220;6.920;2023-05-02T12:27:10;51.38;;;40.47;;
62832;SDS011;48891;49.220;6.920;2023-05-02T12:29:40;53.42;;;41.28;;
62832;SDS011;48891;49.220;6.920;2023-05-02T12:32:06;52.03;;;39.47;;
62832;SDS011;48891;49.220;6.920;2023-05-02T12:34:32;49.22;;;40.67;;
62832;SDS011;48891;49.220;6.920;2023-05-02T12:36:58;51.20;;;41.25;;
62832;SDS011;48891;49.220;6.920;2023-05-02T12:39:42;54.55;;;42.80;;
62832;SDS011;48891;49.220;6.920;2023-05-02T12:42:08;54.22;;;43.63;;
62832;SDS011;48891;49.220;6.920;2023-05-02T12:44:38;51.25;;;39.63;;
62832;SDS011;48891;49.220;6.920;2023-05-02T12:47:04;52.08;;;40.65;;
62832;SDS011;48891;49.220;6.920;2023-05-02T12:49:30;52.92;;;40.15;;
62832;SDS011;48891;49.220;6.920;2023-05-02T12:51:55;54.15;;;42.40;;
62832;SDS011;48891;49.220;6.920;2023-05-02T12:54:21;48.35;;;39.78;;
62832;SDS011;48891;49.220;6.920;2023-05-02T12:56:46;52.33;;;41.10;;
62832;SDS011;48891;49.220;6.920;2023-05-02T12:59:27;54.95;;;41.63;;
62832;SDS011;48891;49.220;6.920;2023-05-02T13:01:54;49.75;;;40.28;;
62832;SDS011;48891;49.220;6.920;2023-05-02T13:04:19;51.47;;;40.40;;
62832;SDS011;48891;49.220;6.920;2023-05-02T13:06:44;51.72;;;40.20;;
62832;SDS011;48891;49.220;6.920;2023-05-02T13:09:10;52.15;;;41.03;;
62832;SDS011;48891;49.220;6.920;2023-05-02T13:11:35;50.15;;;38.97;;
62832;SDS011;48891;49.220;6.920;2023-05-02T13:14:00;51.63;;;40.30;;
62832;SDS011;48891;49.220;6.920;2023-05-02T13:16:25;48.00;;;37.95;;
62832;SDS011;48891;49.220;6.920;2023-05-02T13:18:50;49.58;;;39.38;;
62832;SDS011;48891;49.220;6.920;2023-05-02T13:21:16;50.03;;;38.03;;
62832;SDS011;48891;49.220;6.920;2023-05-02T13:23:41;54.00;;;41.05;;
62832;SDS011;48891;49.220;6.920;2023-05-02T13:26:06;51.22;;;40.75;;
62832;SDS011;48891;49.220;6.920;2023-05-02T13:28:31;50.23;;;38.23;;
62832;SDS011;48891;49.220;6.920;2023-05-02T13:30:57;48.70;;;37.60;;
62832;SDS011;48891;49.220;6.920;2023-05-02T13:33:22;48.00;;;38.88;;
62832;SDS011;48891;49.220;6.920;2023-05-02T13:35:47;47.50;;;37.95;;
62832;SDS011;48891;49.220;6.920;2023-05-02T13:38:12;48.55;;;38.15;;
62832;SDS011;48891;49.220;6.920;2023-05-02T13:40:38;45.97;;;37.50;;
62832;SDS011;48891;49.220;6.920;2023-05-02T13:43:03;47.20;;;36.97;;
62832;SDS011;48891;49.220;6.920;2023-05-02T13:45:28;45.95;;;37.45;;
62832;SDS011;48891;49.220;6.920;2023-05-02T13:47:53;47.90;;;37.90;;
62832;SDS011;48891;49.220;6.920;2023-05-02T13:50:18;44.90;;;36.97;;
62832;SDS011;48891;49.220;6.920;2023-05-02T13:52:44;44.67;;;36.05;;
62832;SDS011;48891;49.220;6.920;2023-05-02T13:55:09;47.40;;;36.83;;
62832;SDS011;48891;49.220;6.920;2023-05-02T13:57:34;45.63;;;36.55;;
62832;SDS011;48891;49.220;6.920;2023-05-02T13:59:59;46.50;;;35.83;;
62832;SDS011;48891;49.220;6.920;2023-05-02T14:02:25;46.30;;;35.33;;
62832;SDS011;48891;49.220;6.920;2023-05-02T14:04:50;48.20;;;36.45;;
62832;SDS011;48891;49.220;6.920;2023-05-02T14:07:15;46.23;;;36.93;;
62832;SDS011;48891;49.220;6.920;2023-05-02T14:09:40;44.58;;;36.58;;
62832;SDS011;48891;49.220;6.920;2023-05-02T14:12:05;44.23;;;35.40;;
62832;SDS011;48891;49.220;6.920;2023-05-02T14:14:31;44.33;;;35.13;;
62832;SDS011;48891;49.220;6.920;2023-05-02T14:16:56;44.88;;;35.67;;
62832;SDS011;48891;49.220;6.920;2023-05-02T14:19:21;45.00;;;35.33;;
62832;SDS011;48891;49.220;6.920;2023-05-02T14:21:46;44.20;;;35.85;;
62832;SDS011;48891;49.220;6.920;2023-05-02T14:24:12;42.20;;;34.47;;
62832;SDS011;48891;49.220;6.920;2023-05-02T14:26:37;43.15;;;35.17;;
62832;SDS011;48891;49.220;6.920;2023-05-02T14:29:02;41.95;;;34.85;;
62832;SDS011;48891;49.220;6.920;2023-05-02T14:31:27;41.53;;;35.00;;
62832;SDS011;48891;49.220;6.920;2023-05-02T14:33:53;43.17;;;34.75;;
62832;SDS011;48891;49.220;6.920;2023-05-02T14:36:18;37.85;;;32.90;;
62832;SDS011;48891;49.220;6.920;2023-05-02T14:38:43;42.73;;;34.07;;
62832;SDS011;48891;49.220;6.920;2023-05-02T14:41:08;40.17;;;33.53;;
62832;SDS011;48891;49.220;6.920;2023-05-02T14:43:34;41.30;;;33.53;;
62832;SDS011;48891;49.220;6.920;2023-05-02T14:45:59;39.72;;;33.58;;
62832;SDS011;48891;49.220;6.920;2023-05-02T14:48:24;41.28;;;33.90;;
62832;SDS011;48891;49.220;6.920;2023-05-02T14:50:49;41.45;;;34.08;;
62832;SDS011;48891;49.220;6.920;2023-05-02T14:53:15;39.33;;;32.95;;
62832;SDS011;48891;49.220;6.920;2023-05-02T14:55:40;41.90;;;33.63;;
62832;SDS011;48891;49.220;6.920;2023-05-02T14:58:05;39.80;;;32.65;;
62832;SDS011;48891;49.220;6.920;2023-05-02T15:00:32;39.65;;;32.70;;
62832;SDS011;48891;49.220;6.920;2023-05-02T15:02:58;39.42;;;32.17;;